createdAt,value
2018-10-19T00:01:20.540Z,14.40
2018-10-19T00:03:49.362Z,14.40
2018-10-19T00:06:18.209Z,14.40
2018-10-19T00:08:47.013Z,14.40
2018-10-19T00:11:16.134Z,14.30
2018-10-19T00:13:44.916Z,14.30
2018-10-19T00:16:13.764Z,14.20
2018-10-19T00:18:42.613Z,14.20
2018-10-19T00:21:11.502Z,14.20
2018-10-19T00:23:40.297Z,14.10
2018-10-19T00:26:09.147Z,14.10
2018-10-19T00:28:38.000Z,14.10
2018-10-19T00:31:06.821Z,14.10
2018-10-19T00:33:35.783Z,14.10
2018-10-19T00:36:05.091Z,14.00
2018-10-19T00:38:33.907Z,14.00
2018-10-19T00:41:02.739Z,14.00
2018-10-19T00:43:31.558Z,13.90
2018-10-19T00:46:00.396Z,13.90
2018-10-19T00:48:29.239Z,13.80
2018-10-19T00:50:58.095Z,13.70
2018-10-19T00:53:26.933Z,13.70
2018-10-19T00:55:55.723Z,13.50
2018-10-19T00:58:24.948Z,13.40
2018-10-19T01:00:53.833Z,13.40
2018-10-19T01:03:22.681Z,13.40
2018-10-19T01:05:51.477Z,13.50
2018-10-19T01:08:20.442Z,13.60
2018-10-19T01:10:49.280Z,13.70
2018-10-19T01:13:18.140Z,13.80
2018-10-19T01:15:47.000Z,13.80
2018-10-19T01:18:15.873Z,13.90
2018-10-19T01:20:44.717Z,13.90
2018-10-19T01:23:13.623Z,13.90
2018-10-19T01:25:43.072Z,13.90
2018-10-19T01:28:12.534Z,13.80
2018-10-19T01:30:41.744Z,13.80
2018-10-19T01:33:10.612Z,13.80
2018-10-19T01:35:39.424Z,13.80
2018-10-19T01:38:08.232Z,13.80
2018-10-19T01:40:37.088Z,13.80
2018-10-19T01:43:05.956Z,13.80
2018-10-19T01:45:34.813Z,13.80
2018-10-19T01:48:03.684Z,13.80
2018-10-19T01:50:32.533Z,13.80
2018-10-19T01:53:01.364Z,13.80
2018-10-19T01:55:30.250Z,13.80
2018-10-19T01:57:59.088Z,13.80
2018-10-19T02:00:27.993Z,13.80
2018-10-19T02:02:56.910Z,13.80
2018-10-19T02:05:25.753Z,13.80
2018-10-19T02:07:54.584Z,13.80
2018-10-19T02:10:23.464Z,13.80
2018-10-19T02:12:52.324Z,13.80
2018-10-19T02:15:21.176Z,13.80
2018-10-19T02:17:49.981Z,13.70
2018-10-19T02:20:18.955Z,13.70
2018-10-19T02:22:48.002Z,13.70
2018-10-19T02:25:16.883Z,13.70
2018-10-19T02:27:45.846Z,13.70
2018-10-19T02:30:14.724Z,13.70
2018-10-19T02:32:43.608Z,13.70
2018-10-19T02:35:12.562Z,13.70
2018-10-19T02:37:41.387Z,13.60
2018-10-19T02:40:10.716Z,13.60
2018-10-19T02:42:39.547Z,13.60
2018-10-19T02:45:09.442Z,13.70
2018-10-19T02:47:38.394Z,13.60
2018-10-19T02:50:08.046Z,13.60
2018-10-19T02:52:37.157Z,13.60
2018-10-19T02:55:06.864Z,13.60
2018-10-19T02:57:35.745Z,13.60
2018-10-19T03:00:05.097Z,13.70
2018-10-19T03:02:33.927Z,13.60
2018-10-19T03:05:02.807Z,13.60
2018-10-19T03:07:31.655Z,13.60
2018-10-19T03:10:00.496Z,13.60
2018-10-19T03:12:29.293Z,13.60
2018-10-19T03:14:58.139Z,13.60
2018-10-19T03:17:26.917Z,13.60
2018-10-19T03:19:55.730Z,13.60
2018-10-19T03:22:24.565Z,13.60
2018-10-19T03:24:53.374Z,13.60
2018-10-19T03:27:22.206Z,13.60
2018-10-19T03:29:51.037Z,13.60
2018-10-19T03:32:19.867Z,13.60
2018-10-19T03:34:48.769Z,13.60
2018-10-19T03:37:17.594Z,13.60
2018-10-19T03:39:46.431Z,13.60
2018-10-19T03:42:15.885Z,13.60
2018-10-19T03:44:44.691Z,13.60
2018-10-19T03:47:13.556Z,13.60
2018-10-19T03:49:42.368Z,13.60
2018-10-19T03:52:11.190Z,13.60
2018-10-19T03:54:40.057Z,13.60
2018-10-19T03:57:08.925Z,13.60
2018-10-19T03:59:37.788Z,13.60
2018-10-19T04:02:06.711Z,13.60
2018-10-19T04:04:35.513Z,13.50
2018-10-19T04:07:04.582Z,13.50
2018-10-19T04:09:33.394Z,13.60
2018-10-19T04:12:02.248Z,13.60
2018-10-19T04:14:31.111Z,13.60
2018-10-19T04:16:59.988Z,13.60
2018-10-19T04:19:28.772Z,13.50
2018-10-19T04:21:57.572Z,13.50
2018-10-19T04:24:26.445Z,13.50
2018-10-19T04:26:55.269Z,13.50
2018-10-19T04:29:24.124Z,13.50
2018-10-19T04:31:52.963Z,13.50
2018-10-19T04:34:21.764Z,13.40
2018-10-19T04:36:50.664Z,13.50
2018-10-19T04:39:19.481Z,13.50
2018-10-19T04:41:48.442Z,13.50
2018-10-19T04:44:17.132Z,13.50
2018-10-19T04:46:45.962Z,13.50
2018-10-19T04:49:14.816Z,13.50
2018-10-19T04:51:43.669Z,13.50
2018-10-19T04:54:12.489Z,13.50
2018-10-19T04:56:41.306Z,13.50
2018-10-19T04:59:10.242Z,13.50
2018-10-19T05:01:39.024Z,13.50
2018-10-19T05:04:07.839Z,13.50
2018-10-19T05:06:37.416Z,13.50
2018-10-19T05:09:08.917Z,13.50
2018-10-19T05:11:37.867Z,13.50
2018-10-19T05:14:06.904Z,13.40
2018-10-19T05:16:36.216Z,13.40
2018-10-19T05:19:05.572Z,13.40
2018-10-19T05:21:35.031Z,13.40
2018-10-19T05:24:03.871Z,13.40
2018-10-19T05:26:32.862Z,13.40
2018-10-19T05:29:01.815Z,13.40
2018-10-19T05:31:30.620Z,13.40
2018-10-19T05:33:59.495Z,13.40
2018-10-19T05:36:28.344Z,13.40
2018-10-19T05:38:57.205Z,13.40
2018-10-19T05:41:26.072Z,13.40
2018-10-19T05:43:54.924Z,13.50
2018-10-19T05:46:23.744Z,13.50
2018-10-19T05:48:52.532Z,13.40
2018-10-19T05:51:21.420Z,13.40
2018-10-19T05:53:50.192Z,13.40
2018-10-19T05:56:19.051Z,13.40
2018-10-19T05:58:47.880Z,13.40
2018-10-19T06:01:16.713Z,13.50
2018-10-19T06:03:45.620Z,13.50
2018-10-19T06:06:14.459Z,13.50
2018-10-19T06:08:43.293Z,13.50
2018-10-19T06:11:12.272Z,13.40
2018-10-19T06:13:41.021Z,13.40
2018-10-19T06:16:09.837Z,13.40
2018-10-19T06:18:38.718Z,13.50
2018-10-19T06:21:07.592Z,13.50
2018-10-19T06:23:36.441Z,13.50
2018-10-19T06:26:05.699Z,13.40
2018-10-19T06:28:34.553Z,13.50
2018-10-19T06:31:03.424Z,13.50
2018-10-19T06:33:32.289Z,13.50
2018-10-19T06:36:01.130Z,13.40
2018-10-19T06:38:29.889Z,13.40
2018-10-19T06:40:58.793Z,13.40
2018-10-19T06:43:27.593Z,13.40
2018-10-19T06:45:56.447Z,13.40
2018-10-19T06:48:25.283Z,13.30
2018-10-19T06:50:54.125Z,13.30
2018-10-19T06:53:23.033Z,13.40
2018-10-19T06:55:51.840Z,13.40
2018-10-19T06:58:20.640Z,13.40
2018-10-19T07:00:49.487Z,13.40
2018-10-19T07:03:18.310Z,13.40
2018-10-19T07:05:47.572Z,13.50
2018-10-19T07:08:16.377Z,13.50
2018-10-19T07:10:45.212Z,13.60
2018-10-19T07:13:14.061Z,13.60
2018-10-19T07:15:42.928Z,13.70
2018-10-19T07:18:11.826Z,13.70
2018-10-19T07:20:40.671Z,13.70
2018-10-19T07:23:09.556Z,13.70
2018-10-19T07:25:38.384Z,13.70
2018-10-19T07:28:07.488Z,13.70
2018-10-19T07:30:36.408Z,13.70
2018-10-19T07:33:05.325Z,13.80
2018-10-19T07:35:34.204Z,13.80
2018-10-19T07:38:03.106Z,13.80
2018-10-19T07:40:31.900Z,13.80
2018-10-19T07:43:00.734Z,13.80
2018-10-19T07:45:29.589Z,13.80
2018-10-19T07:47:58.627Z,13.90
2018-10-19T07:50:27.297Z,13.90
2018-10-19T07:52:56.126Z,13.90
2018-10-19T07:55:25.063Z,13.90
2018-10-19T07:57:53.979Z,13.90
2018-10-19T08:00:22.806Z,14.00
2018-10-19T08:02:51.645Z,14.00
2018-10-19T08:05:20.534Z,14.00
2018-10-19T08:07:49.328Z,14.00
2018-10-19T08:10:18.180Z,14.00
2018-10-19T08:12:46.992Z,14.00
2018-10-19T08:15:15.791Z,14.10
2018-10-19T08:17:44.672Z,14.10
2018-10-19T08:20:13.559Z,14.20
2018-10-19T08:22:42.377Z,14.20
2018-10-19T08:25:11.262Z,14.20
2018-10-19T08:27:40.089Z,14.20
2018-10-19T08:30:09.001Z,14.20
2018-10-19T08:32:37.858Z,14.30
2018-10-19T08:35:07.244Z,14.30
2018-10-19T08:37:36.190Z,14.30
2018-10-19T08:40:05.762Z,14.30
2018-10-19T08:42:34.664Z,14.40
2018-10-19T08:45:03.695Z,14.40
2018-10-19T08:47:32.514Z,14.50
2018-10-19T08:50:01.300Z,14.50
2018-10-19T08:52:30.080Z,14.50
2018-10-19T08:54:58.917Z,14.60
2018-10-19T08:57:27.792Z,14.50
2018-10-19T08:59:56.672Z,14.60
2018-10-19T09:02:25.448Z,14.60
2018-10-19T09:04:54.326Z,14.60
2018-10-19T09:07:23.156Z,14.70
2018-10-19T09:09:51.988Z,14.70
2018-10-19T09:12:20.791Z,14.80
2018-10-19T09:14:53.246Z,14.80
2018-10-19T09:17:22.176Z,14.90
2018-10-19T09:19:51.089Z,14.90
2018-10-19T09:22:20.562Z,15.00
2018-10-19T09:24:49.487Z,15.00
2018-10-19T09:27:18.457Z,15.10
2018-10-19T09:29:47.539Z,15.10
2018-10-19T09:32:16.679Z,15.20
2018-10-19T09:34:45.556Z,15.30
2018-10-19T09:37:14.724Z,15.30
2018-10-19T09:39:43.568Z,15.40
2018-10-19T09:42:12.480Z,15.50
2018-10-19T09:44:41.277Z,15.50
2018-10-19T09:47:10.209Z,15.60
2018-10-19T09:49:39.024Z,15.70
2018-10-19T09:52:07.900Z,15.70
2018-10-19T09:54:36.736Z,15.80
2018-10-19T09:57:05.919Z,15.90
2018-10-19T09:59:34.694Z,16.00
2018-10-19T10:02:03.555Z,16.00
2018-10-19T10:04:32.367Z,16.10
2018-10-19T10:07:01.328Z,16.20
2018-10-19T10:09:30.116Z,16.30
2018-10-19T10:11:58.952Z,16.40
2018-10-19T10:14:27.804Z,16.50
2018-10-19T10:16:56.757Z,16.60
2018-10-19T10:19:25.580Z,16.60
2018-10-19T10:21:54.446Z,16.70
2018-10-19T10:24:23.249Z,16.80
2018-10-19T10:26:52.072Z,16.90
2018-10-19T10:29:21.049Z,17.00
2018-10-19T10:31:49.872Z,17.10
2018-10-19T10:34:18.655Z,17.20
2018-10-19T10:36:47.464Z,17.30
2018-10-19T10:39:16.399Z,17.40
2018-10-19T10:41:45.225Z,17.50
2018-10-19T10:44:14.066Z,17.60
2018-10-19T10:46:42.881Z,17.70
2018-10-19T10:49:11.819Z,17.70
2018-10-19T10:51:40.584Z,17.80
2018-10-19T10:54:09.526Z,17.90
2018-10-19T10:56:38.317Z,18.00
2018-10-19T10:59:07.142Z,18.10
2018-10-19T11:01:35.988Z,18.10
2018-10-19T11:04:04.833Z,18.20
2018-10-19T11:06:33.665Z,18.30
2018-10-19T11:09:02.594Z,18.40
2018-10-19T11:11:31.432Z,18.40
2018-10-19T11:14:00.256Z,18.50
2018-10-19T11:16:29.076Z,18.60
2018-10-19T11:18:58.007Z,18.60
2018-10-19T11:21:26.819Z,18.70
2018-10-19T11:23:55.652Z,18.80
2018-10-19T11:26:24.465Z,18.90
2018-10-19T11:28:53.305Z,19.00
2018-10-19T11:31:22.271Z,19.00
2018-10-19T11:33:51.075Z,19.10
2018-10-19T11:36:19.933Z,19.20
2018-10-19T11:38:48.780Z,19.30
2018-10-19T11:41:17.630Z,19.30
2018-10-19T11:43:46.507Z,19.40
2018-10-19T11:46:15.437Z,19.40
2018-10-19T11:48:44.253Z,19.60
2018-10-19T11:51:13.109Z,19.60
2018-10-19T11:53:41.925Z,19.60
2018-10-19T11:56:10.780Z,19.70
2018-10-19T11:58:39.624Z,19.80
2018-10-19T12:01:08.456Z,19.90
2018-10-19T12:03:37.334Z,19.90
2018-10-19T12:06:06.544Z,20.00
2018-10-19T12:08:35.406Z,20.10
2018-10-19T12:11:04.422Z,20.20
2018-10-19T12:13:33.251Z,20.30
2018-10-19T12:16:02.139Z,20.30
2018-10-19T12:18:30.980Z,20.40
2018-10-19T12:20:59.959Z,20.50
2018-10-19T12:23:28.725Z,20.50
2018-10-19T12:25:57.545Z,20.70
2018-10-19T12:28:27.260Z,20.70
2018-10-19T12:30:56.106Z,20.80
2018-10-19T12:33:25.003Z,20.90
2018-10-19T12:35:53.842Z,20.90
2018-10-19T12:38:22.730Z,21.00
2018-10-19T12:40:51.610Z,21.10
2018-10-19T12:43:20.508Z,21.10
2018-10-19T12:46:30.926Z,21.20
2018-10-19T12:48:59.807Z,21.20
2018-10-19T12:51:28.635Z,21.30
2018-10-19T12:53:57.536Z,21.30
2018-10-19T12:56:26.368Z,21.40
2018-10-19T12:58:55.771Z,21.50
2018-10-19T13:01:25.839Z,21.60
2018-10-19T13:03:54.647Z,21.60
2018-10-19T13:09:42.705Z,21.70
2018-10-19T13:12:11.484Z,21.70
2018-10-19T13:14:40.302Z,21.80
2018-10-19T13:17:09.659Z,21.80
2018-10-19T13:19:38.633Z,21.90
2018-10-19T13:22:07.479Z,21.90
2018-10-19T13:24:36.296Z,22.00
2018-10-19T13:27:05.298Z,22.00
2018-10-19T13:29:34.064Z,22.10
2018-10-19T13:32:02.936Z,22.10
2018-10-19T13:34:31.736Z,22.20
2018-10-19T13:37:00.518Z,22.20
2018-10-19T13:39:29.345Z,22.20
2018-10-19T13:41:58.105Z,22.30
2018-10-19T13:44:26.922Z,22.40
2018-10-19T13:46:55.745Z,22.40
2018-10-19T13:49:24.532Z,22.40
2018-10-19T13:51:53.389Z,22.40
2018-10-19T13:54:22.187Z,22.40
2018-10-19T13:56:50.956Z,22.50
2018-10-19T13:59:19.776Z,22.50
2018-10-19T14:01:48.575Z,22.50
2018-10-19T14:04:17.390Z,22.50
2018-10-19T14:06:46.191Z,22.50
2018-10-19T14:09:15.042Z,22.50
2018-10-19T14:11:43.837Z,22.60
2018-10-19T14:14:12.659Z,22.50
2018-10-19T14:16:41.448Z,22.50
2018-10-19T14:19:10.250Z,22.50
2018-10-19T14:21:39.078Z,22.50
2018-10-19T14:24:07.864Z,22.50
2018-10-19T14:26:36.714Z,22.50
2018-10-19T14:29:05.851Z,22.60
2018-10-19T14:31:34.579Z,22.60
2018-10-19T14:34:03.366Z,22.60
2018-10-19T14:36:32.220Z,22.50
2018-10-19T14:39:01.008Z,22.50
2018-10-19T14:41:29.817Z,22.50
2018-10-19T14:43:58.600Z,22.60
2018-10-19T14:46:27.410Z,22.60
2018-10-19T14:48:56.283Z,22.60
2018-10-19T14:51:25.121Z,22.60
2018-10-19T14:53:53.880Z,22.50
2018-10-19T14:56:22.677Z,22.50
2018-10-19T14:58:51.451Z,22.50
2018-10-19T15:01:20.237Z,22.40
2018-10-19T15:03:49.057Z,22.40
2018-10-19T15:06:17.829Z,22.30
2018-10-19T15:08:46.677Z,22.20
2018-10-19T15:11:15.619Z,22.20
2018-10-19T15:13:44.295Z,22.10
2018-10-19T15:16:13.085Z,22.10
2018-10-19T15:18:41.922Z,22.00
2018-10-19T15:21:10.766Z,22.00
2018-10-19T15:23:39.566Z,21.90
2018-10-19T15:26:08.393Z,21.80
2018-10-19T15:28:37.241Z,21.80
2018-10-19T15:31:06.311Z,21.70
2018-10-19T15:33:35.152Z,21.70
2018-10-19T15:36:04.057Z,21.70
2018-10-19T15:38:32.828Z,21.60
2018-10-19T15:41:01.658Z,21.50
2018-10-19T15:43:30.429Z,21.50
2018-10-19T15:45:59.352Z,21.40
2018-10-19T15:48:28.123Z,21.40
2018-10-19T15:50:56.981Z,21.30
2018-10-19T15:53:25.807Z,21.30
2018-10-19T15:55:54.621Z,21.20
2018-10-19T15:58:23.487Z,21.10
2018-10-19T16:00:52.321Z,21.10
2018-10-19T16:03:21.163Z,21.10
2018-10-19T16:05:50.005Z,21.10
2018-10-19T16:08:18.836Z,21.00
2018-10-19T16:10:47.729Z,20.90
2018-10-19T16:13:16.587Z,20.80
2018-10-19T16:15:45.398Z,20.80
2018-10-19T16:18:14.229Z,20.70
2018-10-19T16:20:43.021Z,20.70
2018-10-19T16:23:11.899Z,20.60
2018-10-19T16:25:40.732Z,20.50
2018-10-19T16:28:09.598Z,20.60
2018-10-19T16:30:38.424Z,20.50
2018-10-19T16:33:07.247Z,20.30
2018-10-19T16:35:36.100Z,20.30
2018-10-19T16:38:05.235Z,20.30
2018-10-19T16:40:34.055Z,20.20
2018-10-19T16:43:02.868Z,20.20
2018-10-19T16:45:31.668Z,20.20
2018-10-19T16:48:00.627Z,20.10
2018-10-19T16:50:29.421Z,20.10
2018-10-19T16:52:58.256Z,20.10
2018-10-19T16:55:27.124Z,20.10
2018-10-19T16:57:56.017Z,20.00
2018-10-19T17:00:24.885Z,20.00
2018-10-19T17:02:53.784Z,20.00
2018-10-19T17:05:22.695Z,19.90
2018-10-19T17:07:51.487Z,19.90
2018-10-19T17:10:20.306Z,19.80
2018-10-19T17:12:49.259Z,19.70
2018-10-19T17:15:18.069Z,19.70
2018-10-19T17:17:46.978Z,19.70
2018-10-19T17:20:15.811Z,19.70
2018-10-19T17:22:44.657Z,19.60
2018-10-19T17:25:13.558Z,19.50
2018-10-19T17:27:42.388Z,19.50
2018-10-19T17:30:12.936Z,19.50
2018-10-19T17:32:41.963Z,19.50
2018-10-19T17:35:11.223Z,19.40
2018-10-19T17:37:40.086Z,19.40
2018-10-19T17:40:09.940Z,19.40
2018-10-19T17:42:38.747Z,19.30
2018-10-19T17:45:09.012Z,19.30
2018-10-19T17:47:37.838Z,19.30
2018-10-19T17:50:06.783Z,19.20
2018-10-19T17:52:35.589Z,19.10
2018-10-19T17:55:04.451Z,19.10
2018-10-19T17:57:33.240Z,19.00
2018-10-19T18:00:02.073Z,19.00
2018-10-19T18:02:31.246Z,18.90
2018-10-19T18:05:00.122Z,18.90
2018-10-19T18:07:28.899Z,18.90
2018-10-19T18:09:57.716Z,18.80
2018-10-19T18:12:26.556Z,18.70
2018-10-19T18:14:55.434Z,18.70
2018-10-19T18:17:24.236Z,18.70
2018-10-19T18:19:53.026Z,18.70
2018-10-19T18:22:22.115Z,18.70
2018-10-19T18:24:50.659Z,18.70
2018-10-19T18:27:19.473Z,18.60
2018-10-19T18:29:48.263Z,18.50
2018-10-19T18:32:17.174Z,18.50
2018-10-19T18:34:45.895Z,18.40
2018-10-19T18:37:14.723Z,18.40
2018-10-19T18:39:43.543Z,18.40
2018-10-19T18:42:12.392Z,18.40
2018-10-19T18:44:41.165Z,18.30
2018-10-19T18:47:10.020Z,18.30
2018-10-19T18:49:38.795Z,18.30
2018-10-19T18:52:07.672Z,18.20
2018-10-19T18:54:36.543Z,18.20
2018-10-19T18:57:05.366Z,18.20
2018-10-19T18:59:34.649Z,18.10
2018-10-19T19:02:03.473Z,18.10
2018-10-19T19:04:32.353Z,18.00
2018-10-19T19:07:01.166Z,18.00
2018-10-19T19:09:29.930Z,17.90
2018-10-19T19:11:58.729Z,17.80
2018-10-19T19:14:27.610Z,17.80
2018-10-19T19:16:56.452Z,17.80
2018-10-19T19:19:25.274Z,17.80
2018-10-19T19:21:54.087Z,17.60
2018-10-19T19:24:28.096Z,17.50
2018-10-19T19:26:56.920Z,17.50
2018-10-19T19:29:25.723Z,17.30
2018-10-19T19:31:54.806Z,17.30
2018-10-19T19:34:28.717Z,17.20
2018-10-19T19:36:57.564Z,17.30
2018-10-19T19:39:26.384Z,17.30
2018-10-19T19:42:00.397Z,17.30
2018-10-19T19:44:29.180Z,17.30
2018-10-19T19:46:57.999Z,17.30
2018-10-19T19:49:32.257Z,17.30
2018-10-19T19:52:01.032Z,17.20
2018-10-19T19:54:29.802Z,17.10
2018-10-19T19:56:58.658Z,17.00
2018-10-19T19:59:27.463Z,17.00
2018-10-19T20:01:56.311Z,16.90
2018-10-19T20:04:25.190Z,16.90
2018-10-19T20:06:54.104Z,16.90
2018-10-19T20:09:22.956Z,16.90
2018-10-19T20:11:51.792Z,16.80
2018-10-19T20:14:20.590Z,16.80
2018-10-19T20:16:49.384Z,16.70
2018-10-19T20:19:18.185Z,16.60
2018-10-19T20:21:47.023Z,16.60
2018-10-19T20:24:15.797Z,16.60
2018-10-19T20:26:44.603Z,16.60
2018-10-19T20:29:13.449Z,16.50
2018-10-19T20:31:42.214Z,16.50
2018-10-19T20:34:11.157Z,16.50
2018-10-19T20:36:40.287Z,16.40
2018-10-19T20:39:10.927Z,16.40
2018-10-19T20:41:39.709Z,16.30
2018-10-19T20:44:08.943Z,16.20
2018-10-19T20:46:37.796Z,16.20
2018-10-19T20:49:06.623Z,16.10
2018-10-19T20:51:35.392Z,16.00
2018-10-19T20:54:04.263Z,16.00
2018-10-19T20:56:33.088Z,16.00
2018-10-19T20:59:02.152Z,16.00
2018-10-19T21:01:30.967Z,16.00
2018-10-19T21:03:59.766Z,15.90
2018-10-19T21:06:28.549Z,15.90
2018-10-19T21:08:57.354Z,15.90
2018-10-19T21:11:26.191Z,15.90
2018-10-19T21:13:55.059Z,15.80
2018-10-19T21:16:23.872Z,15.80
2018-10-19T21:18:52.699Z,15.70
2018-10-19T21:21:21.505Z,15.70
2018-10-19T21:23:50.339Z,15.60
2018-10-19T21:26:19.153Z,15.50
2018-10-19T21:28:48.026Z,15.50
2018-10-19T21:31:16.843Z,15.50
2018-10-19T21:33:45.683Z,15.50
2018-10-19T21:36:14.608Z,15.50
2018-10-19T21:38:43.355Z,15.40
2018-10-19T21:41:12.195Z,15.40
2018-10-19T21:43:40.975Z,15.40
2018-10-19T21:46:09.787Z,15.30
2018-10-19T21:48:38.638Z,15.30
2018-10-19T21:51:07.454Z,15.20
2018-10-19T21:53:36.207Z,15.20
2018-10-19T21:56:05.060Z,15.10
2018-10-19T21:58:33.893Z,15.10
2018-10-19T22:01:02.732Z,15.00
2018-10-19T22:03:31.513Z,15.00
2018-10-19T22:06:00.317Z,14.90
2018-10-19T22:08:29.156Z,14.90
2018-10-19T22:10:57.949Z,14.80
2018-10-19T22:13:26.749Z,14.80
2018-10-19T22:15:55.537Z,14.80
2018-10-19T22:18:24.375Z,14.80
2018-10-19T22:20:53.144Z,14.80
2018-10-19T22:23:21.961Z,14.70
2018-10-19T22:25:50.827Z,14.70
2018-10-19T22:28:19.580Z,14.70
2018-10-19T22:30:48.387Z,14.70
2018-10-19T22:33:17.226Z,14.60
2018-10-19T22:35:45.973Z,14.50
2018-10-19T22:38:14.811Z,14.50
2018-10-19T22:40:43.607Z,14.40
2018-10-19T22:43:12.502Z,14.30
2018-10-19T22:45:41.267Z,14.30
2018-10-19T22:48:10.085Z,14.30
2018-10-19T22:50:38.973Z,14.30
2018-10-19T22:53:07.912Z,14.30
2018-10-19T22:55:36.744Z,14.40
2018-10-19T22:58:05.565Z,14.40
2018-10-19T23:00:34.360Z,14.40
2018-10-19T23:03:03.213Z,14.30
2018-10-19T23:05:32.235Z,14.30
2018-10-19T23:08:01.074Z,14.30
2018-10-19T23:10:29.903Z,14.20
2018-10-19T23:12:58.781Z,14.20
2018-10-19T23:15:27.666Z,14.20
2018-10-19T23:17:56.451Z,14.10
2018-10-19T23:20:25.227Z,14.10
2018-10-19T23:22:54.076Z,14.10
2018-10-19T23:25:22.884Z,14.10
2018-10-19T23:27:51.708Z,14.10
2018-10-19T23:30:20.539Z,14.10
2018-10-19T23:32:49.348Z,14.00
2018-10-19T23:35:18.180Z,14.00
2018-10-19T23:37:47.032Z,13.90
2018-10-19T23:40:15.855Z,13.80
2018-10-19T23:42:44.679Z,13.70
2018-10-19T23:45:13.478Z,13.40
2018-10-19T23:47:42.287Z,13.50
2018-10-19T23:50:11.109Z,13.50
2018-10-19T23:52:39.908Z,13.50
2018-10-19T23:55:08.786Z,13.50
2018-10-19T23:57:37.532Z,13.50
